Time;durP1;ratioP1;P1;durP2;ratioP2;P2;SDS_P1;SDS_P2;PMS_P1;PMS_P2;Temp;Humidity;BMP_temperature;BMP_pressure;BME280_temperature;BME280_humidity;BME280_pressure;Samples;Min_cycle;Max_cycle;Signal;HPM_P1;HPM_P2
2022/11/20 00:01:26;;;;;;;42.00;21.27;;;-2.80;99.90;;;;;;5061230;28;20213;-73
2022/11/20 00:03:54;;;;;;;40.70;22.00;;;-2.80;99.90;;;;;;5065724;28;20201;-73
2022/11/20 00:06:22;;;;;;;39.17;21.27;;;-2.80;99.90;;;;;;5057093;28;20347;-73
2022/11/20 00:08:50;;;;;;;44.87;23.33;;;-2.80;99.90;;;;;;5060846;28;20205;-73
2022/11/20 00:11:20;;;;;;;36.33;20.03;;;-2.80;99.90;;;;;;5065061;28;20225;-74
2022/11/20 00:13:49;;;;;;;40.07;20.30;;;-2.90;99.90;;;;;;5060544;28;20197;-74
2022/11/20 00:16:19;;;;;;;37.57;19.77;;;-2.90;99.90;;;;;;5063464;28;20571;-74
2022/11/20 00:18:46;;;;;;;41.10;20.00;;;-2.90;99.90;;;;;;5059989;28;20650;-74
2022/11/20 00:21:19;;;;;;;40.27;21.70;;;-2.90;99.90;;;;;;5044571;28;20628;-73
2022/11/20 00:23:48;;;;;;;38.73;20.43;;;-2.90;99.90;;;;;;5065510;28;20814;-72
2022/11/20 00:26:17;;;;;;;36.03;19.97;;;-2.90;99.90;;;;;;5066050;28;20208;-73
2022/11/20 00:28:49;;;;;;;35.60;18.83;;;-2.90;99.90;;;;;;5061667;28;20872;-72
2022/11/20 00:31:16;;;;;;;40.47;19.27;;;-2.90;99.90;;;;;;5066611;28;20224;-73
2022/11/20 00:33:44;;;;;;;35.73;18.37;;;-2.90;99.90;;;;;;5063245;28;20714;-72
2022/11/20 00:36:14;;;;;;;34.60;18.80;;;-2.90;99.90;;;;;;5063665;28;20320;-73
2022/11/20 00:38:42;;;;;;;36.97;19.03;;;-3.00;99.90;;;;;;5046273;28;20249;-72
2022/11/20 00:41:10;;;;;;;36.70;19.27;;;-2.90;99.90;;;;;;5041882;28;20206;-73
2022/11/20 00:43:37;;;;;;;30.23;17.73;;;-3.00;99.90;;;;;;5064326;28;20200;-73
2022/11/20 00:46:07;;;;;;;38.27;19.70;;;-3.00;99.90;;;;;;5063696;28;20642;-72
2022/11/20 00:48:34;;;;;;;32.67;18.10;;;-3.00;99.90;;;;;;5062245;28;20208;-72
2022/11/20 00:51:01;;;;;;;35.13;18.23;;;-3.00;99.90;;;;;;5064189;28;20233;-72
2022/11/20 00:53:28;;;;;;;35.33;17.80;;;-3.00;99.90;;;;;;5067499;28;20211;-72
2022/11/20 00:56:02;;;;;;;34.33;18.00;;;-3.00;99.90;;;;;;5060447;28;20208;-73
2022/11/20 00:58:31;;;;;;;38.57;20.03;;;-3.10;99.90;;;;;;5066595;28;20286;-73
2022/11/20 01:01:16;;;;;;;36.23;19.93;;;-3.10;99.90;;;;;;5060943;28;20224;-73
2022/11/20 01:03:45;;;;;;;38.93;19.30;;;-3.10;99.90;;;;;;5062118;28;20680;-72
2022/11/20 01:06:18;;;;;;;36.23;18.10;;;-3.10;99.90;;;;;;5061643;28;20307;-73
2022/11/20 01:08:46;;;;;;;36.73;18.97;;;-3.20;99.90;;;;;;5057658;28;20632;-72
2022/11/20 01:11:21;;;;;;;35.27;18.10;;;-3.20;99.90;;;;;;5064524;28;20233;-73
2022/11/20 01:13:50;;;;;;;34.83;18.57;;;-3.20;99.90;;;;;;5060455;28;20293;-75
2022/11/20 01:16:25;;;;;;;31.27;17.07;;;-3.20;99.90;;;;;;5063819;28;20199;-74
2022/11/20 01:18:54;;;;;;;35.67;18.30;;;-3.20;99.90;;;;;;5060270;28;20658;-73
2022/11/20 01:21:26;;;;;;;35.80;18.13;;;-3.20;99.90;;;;;;5064799;28;20275;-72
2022/11/20 01:23:53;;;;;;;31.17;16.87;;;-3.20;99.90;;;;;;5058676;28;20201;-73
2022/11/20 01:26:31;;;;;;;32.33;18.93;;;-3.30;99.90;;;;;;5067360;28;20335;-72
2022/11/20 01:28:59;;;;;;;35.70;18.80;;;-3.30;99.90;;;;;;5066068;28;20281;-73
2022/11/20 01:31:32;;;;;;;34.40;17.63;;;-3.30;99.90;;;;;;5068324;28;20321;-73
2022/11/20 01:34:01;;;;;;;32.00;16.93;;;-3.30;99.90;;;;;;5069833;28;20220;-73
2022/11/20 01:36:31;;;;;;;30.43;16.90;;;-3.30;99.90;;;;;;5063856;28;20240;-73
2022/11/20 01:39:00;;;;;;;31.77;18.07;;;-3.30;99.90;;;;;;5066305;28;20246;-73
2022/11/20 01:44:16;;;;;;;33.37;17.83;;;-3.40;99.90;;;;;;5071108;28;20204;-73
2022/11/20 01:47:02;;;;;;;32.43;17.83;;;-3.40;99.90;;;;;;5065902;28;20298;-72
2022/11/20 01:49:40;;;;;;;31.53;17.27;;;-3.50;99.90;;;;;;5062776;28;20298;-73
2022/11/20 01:52:22;;;;;;;30.43;16.70;;;-3.50;99.90;;;;;;5066747;28;20240;-73
2022/11/20 01:54:58;;;;;;;34.00;18.17;;;-3.50;99.90;;;;;;5067448;28;20196;-73
2022/11/20 01:57:27;;;;;;;34.17;17.23;;;-3.50;99.90;;;;;;5065972;28;20325;-73
2022/11/20 01:59:59;;;;;;;34.87;17.87;;;-3.50;99.90;;;;;;5065017;28;20237;-74
2022/11/20 02:02:27;;;;;;;30.80;15.87;;;-3.50;99.90;;;;;;5064176;28;20319;-74
2022/11/20 02:05:00;;;;;;;35.37;17.40;;;-3.50;99.90;;;;;;5067246;28;20198;-73
2022/11/20 02:07:28;;;;;;;33.13;17.97;;;-3.50;99.90;;;;;;5063709;28;20221;-73
2022/11/20 02:09:55;;;;;;;30.97;16.17;;;-3.60;99.90;;;;;;5073430;28;20242;-73
2022/11/20 02:15:10;;;;;;;31.47;16.60;;;-3.60;99.90;;;;;;5065867;28;20208;-73
2022/11/20 02:17:38;;;;;;;31.60;16.37;;;-3.60;99.90;;;;;;5065007;28;20255;-73
2022/11/20 02:20:05;;;;;;;29.50;17.47;;;-3.60;99.90;;;;;;5081071;28;20216;-74
2022/11/20 02:22:46;;;;;;;35.93;18.17;;;-3.60;99.90;;;;;;5065691;28;20314;-73
2022/11/20 02:25:14;;;;;;;33.10;16.70;;;-3.70;99.90;;;;;;5074051;28;20200;-72
2022/11/20 02:27:41;;;;;;;28.30;15.50;;;-3.70;99.90;;;;;;5048875;28;20231;-73
2022/11/20 02:30:10;;;;;;;33.60;16.53;;;-3.70;99.90;;;;;;5066765;28;20204;-73
2022/11/20 02:32:38;;;;;;;29.13;16.33;;;-3.80;99.90;;;;;;5067106;28;20233;-73
2022/11/20 02:35:29;;;;;;;30.03;15.50;;;-3.80;99.90;;;;;;5061929;28;20322;-73
2022/11/20 02:38:00;;;;;;;30.30;14.90;;;-3.80;99.90;;;;;;5055437;28;20308;-74
2022/11/20 02:40:27;;;;;;;27.77;14.20;;;-3.80;99.90;;;;;;5065770;28;20772;-73
2022/11/20 02:42:54;;;;;;;32.47;15.63;;;-3.80;99.90;;;;;;5065406;28;20296;-74
2022/11/20 02:45:22;;;;;;;30.60;15.37;;;-3.80;99.90;;;;;;5052995;28;20659;-73
2022/11/20 02:47:50;;;;;;;29.77;15.30;;;-3.80;99.90;;;;;;5062433;28;20288;-74
2022/11/20 02:50:17;;;;;;;31.60;15.60;;;-3.80;99.90;;;;;;5062533;28;20290;-73
2022/11/20 02:52:44;;;;;;;27.33;15.20;;;-3.80;99.90;;;;;;5069374;28;20274;-74
2022/11/20 02:55:11;;;;;;;31.17;16.33;;;-3.90;99.90;;;;;;5067739;28;20685;-73
2022/11/20 02:57:41;;;;;;;29.63;14.80;;;-3.90;99.90;;;;;;5044589;28;20257;-73
2022/11/20 03:00:08;;;;;;;28.83;15.97;;;-3.90;99.90;;;;;;5063381;28;20208;-74
2022/11/20 03:02:35;;;;;;;31.03;15.63;;;-3.90;99.90;;;;;;5059980;28;20322;-73
2022/11/20 03:05:03;;;;;;;28.73;15.10;;;-3.90;99.90;;;;;;5067337;28;20293;-74
2022/11/20 03:07:33;;;;;;;29.80;15.33;;;-3.90;99.90;;;;;;5061554;28;20217;-76
2022/11/20 03:09:59;;;;;;;32.30;14.47;;;-3.90;99.90;;;;;;5069353;28;20204;-72
2022/11/20 03:12:26;;;;;;;28.10;15.83;;;-3.90;99.90;;;;;;5061093;28;20291;-73
2022/11/20 03:14:53;;;;;;;28.27;14.27;;;-3.90;99.90;;;;;;5066315;28;20201;-73
2022/11/20 03:17:20;;;;;;;28.33;15.27;;;-3.90;99.90;;;;;;5050525;28;20298;-74
2022/11/20 03:19:46;;;;;;;26.60;15.37;;;-3.90;99.90;;;;;;5066484;28;20717;-73
2022/11/20 03:22:13;;;;;;;26.30;13.77;;;-4.00;99.90;;;;;;5064428;28;20285;-73
2022/11/20 03:24:40;;;;;;;33.20;16.33;;;-4.00;99.90;;;;;;5065845;28;20292;-72
2022/11/20 03:27:07;;;;;;;28.60;15.10;;;-4.00;99.90;;;;;;5060930;28;20208;-73
2022/11/20 03:29:35;;;;;;;26.50;15.23;;;-4.00;99.90;;;;;;5071333;28;20267;-73
2022/11/20 03:32:02;;;;;;;30.93;15.53;;;-4.00;99.90;;;;;;5063502;28;20223;-74
2022/11/20 03:34:28;;;;;;;27.00;14.03;;;-4.00;99.90;;;;;;5052095;28;20199;-73
2022/11/20 03:36:55;;;;;;;27.40;13.60;;;-4.00;99.90;;;;;;5063835;28;20373;-74
2022/11/20 03:39:22;;;;;;;26.63;14.50;;;-4.00;99.90;;;;;;5069588;28;20205;-73
2022/11/20 03:41:49;;;;;;;27.03;13.73;;;-4.00;99.90;;;;;;5052383;28;20322;-73
2022/11/20 03:44:16;;;;;;;30.50;16.13;;;-4.00;99.90;;;;;;5047503;28;20295;-72
2022/11/20 03:46:43;;;;;;;29.97;16.10;;;-4.00;99.90;;;;;;5050877;28;20214;-72
2022/11/20 03:49:10;;;;;;;35.67;17.17;;;-4.10;99.90;;;;;;5068558;28;20286;-74
2022/11/20 03:51:37;;;;;;;35.37;17.43;;;-4.10;99.90;;;;;;5066901;28;20890;-73
2022/11/20 03:54:07;;;;;;;26.47;15.50;;;-4.10;99.90;;;;;;5068603;28;20358;-74
2022/11/20 03:56:37;;;;;;;27.60;15.00;;;-4.10;99.90;;;;;;5063160;28;20708;-73
2022/11/20 03:59:04;;;;;;;25.90;15.47;;;-4.10;99.90;;;;;;5065657;28;20231;-73
2022/11/20 04:01:33;;;;;;;29.80;15.77;;;-4.00;99.90;;;;;;5064145;28;20206;-74
2022/11/20 04:04:00;;;;;;;30.87;15.27;;;-4.10;99.90;;;;;;5063956;28;20822;-73
2022/11/20 04:06:30;;;;;;;30.70;17.47;;;-4.10;99.90;;;;;;5065766;28;20216;-73
2022/11/20 04:08:58;;;;;;;34.23;17.57;;;-4.10;99.90;;;;;;5042756;28;20227;-73
2022/11/20 04:11:33;;;;;;;31.27;15.93;;;-4.10;99.90;;;;;;5066597;28;20764;-73
2022/11/20 04:14:02;;;;;;;31.40;16.97;;;-4.10;99.90;;;;;;5042589;28;20686;-72
2022/11/20 04:16:31;;;;;;;32.37;17.43;;;-4.10;99.90;;;;;;5066157;28;20329;-74
2022/11/20 04:19:00;;;;;;;31.33;17.37;;;-4.10;99.90;;;;;;5062725;28;20220;-73
2022/11/20 04:21:27;;;;;;;32.43;16.87;;;-4.10;99.90;;;;;;5050615;28;20258;-73
2022/11/20 04:23:55;;;;;;;29.77;16.53;;;-4.10;99.90;;;;;;5064382;28;20847;-73
2022/11/20 04:26:24;;;;;;;28.97;15.73;;;-4.10;99.90;;;;;;5051584;28;20310;-74
2022/11/20 04:28:51;;;;;;;27.30;14.83;;;-4.20;99.90;;;;;;5062709;28;20244;-74
2022/11/20 04:31:23;;;;;;;31.37;15.63;;;-4.20;99.90;;;;;;5064694;28;20319;-72
2022/11/20 04:33:51;;;;;;;29.07;14.47;;;-4.20;99.90;;;;;;5062277;28;20627;-74
2022/11/20 04:36:30;;;;;;;26.10;15.17;;;-4.20;99.90;;;;;;5063282;28;20294;-73
2022/11/20 04:39:00;;;;;;;28.50;14.50;;;-4.20;99.90;;;;;;5063427;28;20203;-73
2022/11/20 04:41:29;;;;;;;28.10;14.37;;;-4.20;99.90;;;;;;5074045;28;20203;-73
2022/11/20 04:44:01;;;;;;;32.07;14.93;;;-4.20;99.90;;;;;;5050877;28;20212;-73
2022/11/20 04:46:29;;;;;;;25.60;14.20;;;-4.20;99.90;;;;;;5060866;28;20204;-73
2022/11/20 04:48:56;;;;;;;27.40;15.53;;;-4.20;99.90;;;;;;5064347;28;20266;-72
2022/11/20 04:51:23;;;;;;;28.73;14.77;;;-4.30;99.90;;;;;;5065118;28;20221;-73
2022/11/20 04:53:50;;;;;;;30.27;15.90;;;-4.30;99.90;;;;;;5071040;28;20634;-73
2022/11/20 04:56:17;;;;;;;30.87;14.63;;;-4.30;99.90;;;;;;5060951;28;20292;-72
2022/11/20 04:58:44;;;;;;;30.53;14.93;;;-4.30;99.90;;;;;;5066134;28;20240;-73
2022/11/20 05:01:14;;;;;;;30.13;15.53;;;-4.30;99.90;;;;;;5061027;28;20212;-73
2022/11/20 05:03:42;;;;;;;32.10;17.20;;;-4.30;99.90;;;;;;5063561;28;20295;-73
2022/11/20 05:06:11;;;;;;;38.27;17.67;;;-4.30;99.90;;;;;;5043315;28;20222;-72
2022/11/20 05:08:38;;;;;;;34.33;17.57;;;-4.30;99.90;;;;;;5045028;28;20215;-73
2022/11/20 05:11:10;;;;;;;35.37;17.43;;;-4.40;99.90;;;;;;5064229;28;20211;-74
2022/11/20 05:13:38;;;;;;;35.57;17.70;;;-4.30;99.90;;;;;;5060854;28;20298;-73
2022/11/20 05:16:16;;;;;;;33.20;17.63;;;-4.30;99.90;;;;;;5064338;28;20324;-72
2022/11/20 05:18:43;;;;;;;33.57;17.80;;;-4.40;99.90;;;;;;5061046;28;20210;-73
2022/11/20 05:21:11;;;;;;;37.97;17.83;;;-4.30;99.90;;;;;;5063287;28;20226;-73
2022/11/20 05:23:38;;;;;;;34.23;18.03;;;-4.30;99.90;;;;;;5064108;28;20265;-72
2022/11/20 05:26:07;;;;;;;35.77;17.50;;;-4.40;99.90;;;;;;5063673;28;20211;-73
2022/11/20 05:28:34;;;;;;;35.07;17.73;;;-4.30;99.90;;;;;;5058908;28;20260;-73
2022/11/20 05:31:22;;;;;;;32.07;17.03;;;-4.30;99.90;;;;;;5070242;28;20242;-73
2022/11/20 05:33:54;;;;;;;29.30;16.97;;;-4.30;99.90;;;;;;5064806;28;20252;-74
2022/11/20 05:36:20;;;;;;;35.67;17.23;;;-4.30;99.90;;;;;;5061600;28;20243;-73
2022/11/20 05:38:48;;;;;;;27.90;15.20;;;-4.30;99.90;;;;;;5062423;28;20641;-73
2022/11/20 05:41:19;;;;;;;27.90;14.70;;;-4.30;99.90;;;;;;5057769;28;20200;-72
2022/11/20 05:43:47;;;;;;;30.13;15.00;;;-4.30;99.90;;;;;;5066800;28;21290;-73
2022/11/20 05:46:16;;;;;;;28.10;14.83;;;-4.40;99.90;;;;;;5064689;28;20246;-72
2022/11/20 05:48:44;;;;;;;32.53;16.13;;;-4.40;99.90;;;;;;5043450;28;20626;-73
2022/11/20 05:51:14;;;;;;;34.57;16.90;;;-4.40;99.90;;;;;;5064665;28;20223;-72
2022/11/20 05:53:41;;;;;;;36.63;17.10;;;-4.40;99.90;;;;;;5068974;28;20242;-73
2022/11/20 05:56:17;;;;;;;31.83;15.47;;;-4.40;99.90;;;;;;5060411;28;20641;-72
2022/11/20 05:58:44;;;;;;;32.47;16.17;;;-4.40;99.90;;;;;;5046780;28;20260;-73
2022/11/20 06:01:16;;;;;;;31.30;15.43;;;-4.40;99.90;;;;;;5063855;28;20282;-73
2022/11/20 06:03:45;;;;;;;29.33;15.20;;;-4.40;99.90;;;;;;5070427;28;20234;-74
2022/11/20 06:06:13;;;;;;;38.53;16.60;;;-4.40;99.90;;;;;;5063909;28;20757;-73
2022/11/20 06:08:40;;;;;;;30.80;15.17;;;-4.40;99.90;;;;;;5061675;28;20314;-75
2022/11/20 06:11:09;;;;;;;35.83;15.87;;;-4.40;99.90;;;;;;5063782;28;20266;-73
2022/11/20 06:13:36;;;;;;;35.13;15.33;;;-4.50;99.90;;;;;;5058865;28;20327;-73
2022/11/20 06:16:09;;;;;;;30.80;15.60;;;-4.50;99.90;;;;;;5060196;28;20381;-73
2022/11/20 06:18:36;;;;;;;32.30;15.97;;;-4.40;99.90;;;;;;5062901;28;20212;-73
2022/11/20 06:21:10;;;;;;;32.33;17.60;;;-4.40;99.90;;;;;;5063997;28;20243;-73
2022/11/20 06:23:38;;;;;;;33.87;16.17;;;-4.50;99.90;;;;;;5063615;28;20202;-75
2022/11/20 06:26:10;;;;;;;37.80;17.57;;;-4.50;99.90;;;;;;5063933;28;20330;-73
2022/11/20 06:28:38;;;;;;;35.83;17.10;;;-4.50;99.90;;;;;;5062993;28;20208;-73
2022/11/20 06:31:06;;;;;;;41.63;20.43;;;-4.50;99.90;;;;;;5066623;28;20202;-73
2022/11/20 06:33:33;;;;;;;42.53;20.27;;;-4.50;99.90;;;;;;5065929;28;20236;-73
2022/11/20 06:36:00;;;;;;;49.10;22.77;;;-4.50;99.90;;;;;;5063564;28;20602;-73
2022/11/20 06:38:33;;;;;;;46.20;22.07;;;-4.50;99.90;;;;;;5077168;28;20653;-73
2022/11/20 06:40:59;;;;;;;45.57;20.00;;;-4.50;99.90;;;;;;5064374;28;20198;-72
2022/11/20 06:43:29;;;;;;;40.33;19.57;;;-4.50;99.90;;;;;;5066352;28;20203;-72
2022/11/20 06:45:58;;;;;;;41.27;18.20;;;-4.50;99.90;;;;;;5058782;28;20314;-72
2022/11/20 06:48:27;;;;;;;45.33;19.93;;;-4.50;99.90;;;;;;5046202;28;20213;-73
2022/11/20 06:50:54;;;;;;;38.80;18.87;;;-4.50;99.90;;;;;;5061789;28;20220;-73
2022/11/20 06:53:22;;;;;;;39.00;18.83;;;-4.50;99.90;;;;;;5061893;28;20234;-72
2022/11/20 06:55:49;;;;;;;40.53;18.37;;;-4.50;99.90;;;;;;5059023;28;20212;-73
2022/11/20 06:58:17;;;;;;;39.37;18.87;;;-4.50;99.90;;;;;;5047952;28;20234;-73
2022/11/20 07:00:45;;;;;;;34.83;18.60;;;-4.50;99.90;;;;;;5063066;28;20301;-72
2022/11/20 07:03:12;;;;;;;43.40;18.50;;;-4.50;99.90;;;;;;5067600;28;20211;-73
2022/11/20 07:05:40;;;;;;;35.27;16.53;;;-4.50;99.90;;;;;;5060775;28;20227;-73
2022/11/20 07:08:07;;;;;;;41.23;19.13;;;-4.40;99.90;;;;;;5057574;28;20318;-74
2022/11/20 07:10:34;;;;;;;46.03;18.43;;;-4.50;99.90;;;;;;5065003;28;20208;-73
2022/11/20 07:13:01;;;;;;;36.97;18.00;;;-4.50;99.90;;;;;;5064305;28;20244;-72
2022/11/20 07:15:28;;;;;;;38.43;18.53;;;-4.40;99.90;;;;;;5064469;28;20203;-74
2022/11/20 07:17:54;;;;;;;38.83;18.37;;;-4.40;99.90;;;;;;5063401;28;20662;-73
2022/11/20 07:20:22;;;;;;;34.67;18.40;;;-4.40;99.90;;;;;;5059719;28;20210;-73
2022/11/20 07:22:54;;;;;;;41.33;18.87;;;-4.40;99.90;;;;;;5061680;28;20223;-74
2022/11/20 07:25:22;;;;;;;39.90;17.73;;;-4.40;99.90;;;;;;5062894;28;20294;-73
2022/11/20 07:27:48;;;;;;;38.63;19.27;;;-4.40;99.90;;;;;;5046353;28;20244;-73
2022/11/20 07:30:16;;;;;;;41.70;19.17;;;-4.40;99.90;;;;;;5066190;28;20624;-73
2022/11/20 07:32:46;;;;;;;40.83;20.37;;;-4.40;99.90;;;;;;5063545;28;20261;-73
2022/11/20 07:35:14;;;;;;;40.13;20.97;;;-4.30;99.90;;;;;;5061463;28;20226;-72
2022/11/20 07:37:41;;;;;;;46.20;22.20;;;-4.30;99.90;;;;;;5060231;28;20221;-72
2022/11/20 07:40:09;;;;;;;43.80;21.20;;;-4.30;99.90;;;;;;5064834;28;20211;-73
2022/11/20 07:42:35;;;;;;;44.83;21.30;;;-4.20;99.90;;;;;;5050907;28;20284;-72
2022/11/20 07:45:02;;;;;;;41.77;21.43;;;-4.20;99.90;;;;;;5062083;28;20250;-71
2022/11/20 07:47:35;;;;;;;41.67;20.80;;;-4.10;99.90;;;;;;5063477;28;20217;-73
2022/11/20 07:50:08;;;;;;;47.43;20.87;;;-4.10;99.90;;;;;;5062557;28;20492;-74
2022/11/20 07:52:36;;;;;;;37.93;19.43;;;-4.10;99.90;;;;;;5064946;28;20635;-73
2022/11/20 07:55:03;;;;;;;39.83;20.53;;;-4.00;99.90;;;;;;5066335;28;20224;-73
2022/11/20 07:57:35;;;;;;;38.30;20.17;;;-4.00;99.90;;;;;;5055823;28;20276;-72
2022/11/20 08:00:04;;;;;;;38.27;19.23;;;-3.90;99.90;;;;;;5073393;28;20432;-72
2022/11/20 08:02:31;;;;;;;45.57;21.80;;;-3.90;99.90;;;;;;5052536;28;20346;-73
2022/11/20 08:04:57;;;;;;;42.53;21.23;;;-3.80;99.90;;;;;;5050953;28;20258;-72
2022/11/20 08:07:24;;;;;;;40.53;21.60;;;-3.80;99.90;;;;;;5068932;28;20243;-72
2022/11/20 08:09:51;;;;;;;47.10;22.77;;;-3.70;99.90;;;;;;5062117;28;20240;-71
2022/11/20 08:15:07;;;;;;;46.23;25.87;;;-3.50;99.90;;;;;;5063003;28;20211;-71
2022/11/20 08:17:42;;;;;;;46.67;24.13;;;-3.40;99.90;;;;;;5065266;28;20637;-73
2022/11/20 08:20:29;;;;;;;46.03;22.77;;;-3.30;99.90;;;;;;5044938;28;20203;-71
2022/11/20 08:23:00;;;;;;;48.23;24.10;;;-3.20;99.90;;;;;;5074779;28;20299;-73
2022/11/20 08:25:29;;;;;;;47.13;23.83;;;-3.20;99.90;;;;;;5067626;28;20208;-72
2022/11/20 08:28:05;;;;;;;43.67;22.50;;;-3.10;99.90;;;;;;5047739;28;20208;-72
2022/11/20 08:30:45;;;;;;;45.57;23.67;;;-3.00;99.90;;;;;;5060264;28;20228;-73
2022/11/20 08:33:12;;;;;;;42.37;22.77;;;-2.90;99.90;;;;;;5062516;28;20259;-73
2022/11/20 08:35:40;;;;;;;44.53;23.27;;;-2.80;99.90;;;;;;5056906;28;20264;-73
2022/11/20 08:38:08;;;;;;;44.53;22.60;;;-2.80;99.90;;;;;;5057944;28;20219;-71
2022/11/20 08:40:35;;;;;;;42.30;23.07;;;-2.70;99.90;;;;;;5062778;28;20661;-73
2022/11/20 08:43:02;;;;;;;47.30;24.50;;;-2.70;99.90;;;;;;5060422;28;20209;-72
2022/11/20 08:45:29;;;;;;;52.63;25.83;;;-2.60;99.90;;;;;;5061113;28;20301;-72
2022/11/20 08:48:01;;;;;;;47.83;24.40;;;-2.50;99.90;;;;;;5057564;28;20209;-72
2022/11/20 08:50:28;;;;;;;49.17;25.60;;;-2.40;99.90;;;;;;5059862;28;20267;-73
2022/11/20 08:52:55;;;;;;;50.27;25.90;;;-2.30;99.90;;;;;;5059191;28;20233;-71
2022/11/20 08:55:22;;;;;;;47.93;24.97;;;-2.20;99.90;;;;;;5060220;28;20197;-72
2022/11/20 08:57:48;;;;;;;45.33;24.17;;;-2.10;99.90;;;;;;5060654;28;20222;-72
2022/11/20 09:00:17;;;;;;;44.83;25.50;;;-2.00;99.90;;;;;;5066806;28;20545;-73
2022/11/20 09:02:43;;;;;;;47.23;24.13;;;-1.90;99.90;;;;;;5063251;28;20592;-73
2022/11/20 09:05:10;;;;;;;41.77;22.10;;;-1.90;99.90;;;;;;5044382;28;20236;-73
2022/11/20 09:07:37;;;;;;;46.17;25.00;;;-1.80;99.90;;;;;;5061812;28;20308;-72
2022/11/20 09:10:05;;;;;;;43.50;23.40;;;-1.70;99.90;;;;;;5064122;28;20285;-71
2022/11/20 09:12:52;;;;;;;43.63;23.13;;;-1.60;99.90;;;;;;5055667;28;20278;-72
2022/11/20 09:15:19;;;;;;;37.53;22.60;;;-1.60;99.90;;;;;;5067845;28;20278;-72
2022/11/20 09:17:57;;;;;;;44.50;22.43;;;-1.60;99.90;;;;;;5059662;28;20229;-73
2022/11/20 09:20:25;;;;;;;46.73;23.33;;;-1.50;99.90;;;;;;5051490;28;20221;-72
2022/11/20 09:22:52;;;;;;;46.00;25.00;;;-1.50;99.90;;;;;;5061767;28;20331;-71
2022/11/20 09:25:19;;;;;;;45.57;24.67;;;-1.40;99.90;;;;;;5063451;28;20238;-70
2022/11/20 09:27:46;;;;;;;46.07;23.50;;;-1.40;99.90;;;;;;5068384;28;20538;-73
2022/11/20 09:30:14;;;;;;;44.90;24.23;;;-1.30;99.90;;;;;;5068321;28;20211;-72
2022/11/20 09:32:45;;;;;;;48.10;23.70;;;-1.20;99.90;;;;;;5067218;28;20744;-73
2022/11/20 09:35:13;;;;;;;46.77;25.33;;;-1.20;99.90;;;;;;5064215;28;20750;-73
2022/11/20 09:37:40;;;;;;;44.67;23.80;;;-1.10;99.90;;;;;;5070256;28;20253;-73
2022/11/20 09:40:30;;;;;;;46.63;24.47;;;-1.00;99.90;;;;;;5064828;28;20409;-71
2022/11/20 09:43:12;;;;;;;44.07;23.87;;;-0.90;99.90;;;;;;5062680;28;20271;-72
2022/11/20 09:45:55;;;;;;;48.90;25.07;;;-0.80;99.90;;;;;;5078765;28;20223;-72
2022/11/20 09:48:54;;;;;;;48.30;24.97;;;-0.70;99.90;;;;;;5065035;28;20210;-72
2022/11/20 09:51:39;;;;;;;43.40;22.37;;;-0.60;99.90;;;;;;5057186;28;20231;-72
2022/11/20 09:54:07;;;;;;;41.87;23.00;;;-0.50;99.90;;;;;;5070261;28;20227;-72
2022/11/20 09:56:40;;;;;;;45.30;23.70;;;-0.30;99.90;;;;;;5057428;28;20556;-72
2022/11/20 09:59:25;;;;;;;44.57;24.53;;;-0.20;99.90;;;;;;5065519;28;20302;-71
2022/11/20 10:01:54;;;;;;;42.27;22.80;;;-0.10;99.90;;;;;;5068289;28;20208;-72
2022/11/20 10:04:22;;;;;;;43.93;22.97;;;0.00;99.90;;;;;;5060235;28;20328;-72
2022/11/20 10:07:11;;;;;;;38.93;20.93;;;0.10;99.90;;;;;;5079230;28;20224;-72
2022/11/20 10:09:59;;;;;;;40.90;22.80;;;0.20;99.90;;;;;;5070702;28;20220;-71
2022/11/20 10:12:40;;;;;;;40.30;22.43;;;0.40;99.90;;;;;;5065359;28;20231;-72
2022/11/20 10:15:26;;;;;;;41.40;22.40;;;;;;;;;;5050686;28;20255;-72
2022/11/20 10:18:14;;;;;;;42.03;23.50;;;0.50;99.90;;;;;;5061639;28;20289;-72
2022/11/20 10:20:59;;;;;;;48.10;24.37;;;0.60;99.90;;;;;;5062969;28;20204;-71
2022/11/20 10:23:57;;;;;;;41.27;23.47;;;0.70;99.90;;;;;;5069720;28;20279;-72
2022/11/20 10:26:59;;;;;;;44.37;23.80;;;0.80;99.90;;;;;;5080803;28;20210;-71
2022/11/20 10:29:33;;;;;;;45.43;24.40;;;0.90;99.90;;;;;;5051960;28;20255;-71
2022/11/20 10:32:13;;;;;;;41.87;23.40;;;1.00;99.90;;;;;;5056936;28;20205;-71
2022/11/20 10:34:57;;;;;;;46.07;24.50;;;1.00;99.90;;;;;;5061032;28;20227;-71
2022/11/20 10:37:29;;;;;;;47.43;24.77;;;1.20;99.90;;;;;;5057147;28;20221;-71
2022/11/20 10:39:56;;;;;;;45.47;24.63;;;1.20;99.90;;;;;;5061334;28;20193;-71
2022/11/20 10:42:37;;;;;;;43.20;24.80;;;1.30;99.90;;;;;;5065459;28;20237;-70
2022/11/20 10:45:31;;;;;;;43.20;24.10;;;1.40;99.90;;;;;;5061010;28;20203;-70
2022/11/20 10:48:30;;;;;;;43.80;24.27;;;1.50;99.90;;;;;;5058598;28;20242;-71
2022/11/20 10:51:34;;;;;;;42.37;24.33;;;1.60;99.90;;;;;;5064291;28;20227;-70
2022/11/20 10:54:25;;;;;;;39.97;23.27;;;1.80;99.90;;;;;;5062354;28;20697;-71
2022/11/20 10:56:56;;;;;;;48.30;23.90;;;1.90;99.90;;;;;;5045396;28;20233;-71
2022/11/20 10:59:56;;;;;;;39.57;22.53;;;1.90;99.90;;;;;;5060887;28;20251;-70
2022/11/20 11:02:30;;;;;;;42.67;23.93;;;2.00;99.90;;;;;;5062719;28;20301;-71
2022/11/20 11:05:02;;;;;;;42.80;24.50;;;2.10;99.90;;;;;;5048186;28;20293;-72
2022/11/20 11:07:38;;;;;;;46.13;25.40;;;2.20;99.90;;;;;;5062358;28;20365;-72
2022/11/20 11:10:17;;;;;;;45.40;24.73;;;2.30;99.90;;;;;;5069606;28;20207;-71
2022/11/20 11:12:49;;;;;;;41.13;24.03;;;2.40;99.90;;;;;;5065869;28;20720;-72
2022/11/20 11:15:36;;;;;;;38.90;22.20;;;2.50;99.90;;;;;;5050981;28;20668;-70
2022/11/20 11:18:03;;;;;;;40.30;22.00;;;2.50;99.90;;;;;;5063279;28;20211;-73
2022/11/20 11:20:32;;;;;;;39.90;22.47;;;2.50;99.90;;;;;;5060488;28;20726;-72
2022/11/20 11:22:59;;;;;;;38.80;22.00;;;2.50;99.90;;;;;;5060086;28;20286;-71
2022/11/20 11:25:35;;;;;;;38.43;21.80;;;2.50;99.90;;;;;;5060418;28;20202;-71
2022/11/20 11:28:25;;;;;;;40.73;21.53;;;2.40;99.90;;;;;;5063791;28;20596;-71
2022/11/20 11:30:53;;;;;;;38.30;22.20;;;2.50;99.90;;;;;;5064463;28;20203;-72
2022/11/20 11:33:22;;;;;;;40.83;22.87;;;2.50;99.90;;;;;;5063790;28;20284;-72
2022/11/20 11:35:58;;;;;;;45.20;24.13;;;2.50;99.90;;;;;;5050069;28;20250;-71
2022/11/20 11:38:40;;;;;;;39.40;21.00;;;2.60;99.90;;;;;;5078835;28;20237;-71
2022/11/20 11:41:12;;;;;;;41.13;23.17;;;2.70;99.90;;;;;;5046774;28;20261;-72
2022/11/20 11:46:28;;;;;;;41.30;23.40;;;2.80;99.90;;;;;;5062582;28;20721;-73
2022/11/20 11:49:09;;;;;;;38.63;22.27;;;2.90;99.90;;;;;;5061858;28;20216;-72
2022/11/20 11:51:58;;;;;;;40.87;23.97;;;3.00;99.90;;;;;;5058531;28;20251;-71
2022/11/20 11:54:47;;;;;;;40.23;22.77;;;3.10;99.90;;;;;;5079156;28;20241;-73
2022/11/20 11:57:23;;;;;;;41.03;23.40;;;3.20;99.90;;;;;;5066645;28;20196;-72
2022/11/20 12:00:15;;;;;;;38.57;22.93;;;3.30;99.90;;;;;;5064659;28;20208;-72
2022/11/20 12:02:45;;;;;;;38.77;22.97;;;3.40;99.90;;;;;;5067118;28;20728;-71
2022/11/20 12:05:18;;;;;;;39.40;22.37;;;3.40;99.90;;;;;;5063293;28;20604;-72
2022/11/20 12:08:09;;;;;;;36.47;21.53;;;3.50;99.90;;;;;;5064876;28;20273;-70
2022/11/20 12:10:56;;;;;;;37.40;21.63;;;3.60;99.90;;;;;;5076175;28;20205;-72
2022/11/20 12:13:36;;;;;;;37.27;21.80;;;3.60;99.90;;;;;;5053896;28;20252;-72
2022/11/20 12:16:03;;;;;;;35.90;21.23;;;3.70;99.90;;;;;;5062372;28;20533;-72
2022/11/20 12:18:31;;;;;;;35.07;21.00;;;3.70;99.90;;;;;;5067541;28;20202;-71
2022/11/20 12:21:07;;;;;;;34.13;21.60;;;3.70;99.90;;;;;;5075800;28;20216;-72
2022/11/20 12:23:42;;;;;;;33.07;21.40;;;3.60;99.90;;;;;;5074629;28;20734;-71
2022/11/20 12:26:38;;;;;;;37.60;20.83;;;3.60;99.90;;;;;;5065462;28;20291;-71
2022/11/20 12:29:27;;;;;;;35.67;20.67;;;3.50;99.90;;;;;;5050077;28;20671;-71
2022/11/20 12:32:10;;;;;;;36.60;20.90;;;3.50;99.90;;;;;;5073184;28;20232;-71
2022/11/20 12:35:06;;;;;;;35.53;21.00;;;3.50;99.90;;;;;;5055854;28;20251;-72
2022/11/20 12:37:45;;;;;;;34.37;19.83;;;3.50;99.90;;;;;;5061485;28;20626;-72
2022/11/20 12:40:32;;;;;;;32.00;18.90;;;3.50;99.90;;;;;;5069004;28;20302;-72
2022/11/20 12:46:26;;;;;;;30.63;18.23;;;3.50;99.90;;;;;;5063601;28;20215;-72
2022/11/20 12:48:53;;;;;;;30.87;18.97;;;3.50;99.90;;;;;;5045752;28;20219;-73
2022/11/20 12:51:37;;;;;;;29.87;19.13;;;3.50;99.90;;;;;;5059713;28;20224;-72
2022/11/20 12:54:28;;;;;;;30.00;19.00;;;3.50;99.90;;;;;;5063086;28;20219;-71
2022/11/20 12:57:25;;;;;;;29.70;18.73;;;3.50;99.90;;;;;;5059819;28;20222;-71
2022/11/20 13:00:10;;;;;;;31.67;20.10;;;3.50;99.90;;;;;;5060957;28;20194;-72
2022/11/20 13:03:07;;;;;;;28.00;18.70;;;3.50;99.90;;;;;;5043900;28;20427;-71
2022/11/20 13:06:01;;;;;;;28.23;17.30;;;3.60;99.90;;;;;;5061292;28;20265;-72
2022/11/20 13:08:34;;;;;;;27.47;16.83;;;3.60;99.90;;;;;;5064513;28;20290;-71